CEB357 RPLL-RPVE
Flight info
| Callsign | CEB357 |
|---|---|
| Flight time | 0h 42m |
| Altitude | 25000 |
| Route | VERDE2V VERDE W24 TAPER TAPER7B |
| Aircraft | A20N/M-SDE2E3FGHIJ1RWXY/LB1 |
Departure
| Time | 2026-04-25 12:28 |
|---|---|
| Airport | Ninoy Aquino International Airport (RPLL) |
Arrival
| Time | 2026-04-25 13:10 |
|---|---|
| Airport | Godofredo P. Ramos Airport (RPVE) |
| Time | Latitude | Longitude | Altitude | Speed | Heading |
|---|---|---|---|---|---|
| 2026-04-25 11:38 | 14.51991 | 121.01179 | 82 ft | 0 kts | 46° |
| 2026-04-25 12:11 | 14.51983 | 121.01170 | 82 ft | 2 kts | 54° |
| 2026-04-25 12:11 | 14.51975 | 121.01157 | 82 ft | 2 kts | 62° |
| 2026-04-25 12:12 | 14.51969 | 121.01143 | 82 ft | 2 kts | 71° |
| 2026-04-25 12:12 | 14.51966 | 121.01133 | 82 ft | 2 kts | 76° |
| 2026-04-25 12:12 | 14.51963 | 121.01113 | 82 ft | 2 kts | 88° |
| 2026-04-25 12:12 | 14.51963 | 121.01098 | 82 ft | 2 kts | 96° |
| 2026-04-25 12:13 | 14.51966 | 121.01083 | 82 ft | 2 kts | 104° |
| 2026-04-25 12:13 | 14.51970 | 121.01069 | 82 ft | 2 kts | 112° |
| 2026-04-25 12:13 | 14.51977 | 121.01055 | 82 ft | 2 kts | 121° |
| 2026-04-25 12:13 | 14.51986 | 121.01042 | 82 ft | 2 kts | 130° |
| 2026-04-25 12:14 | 14.51996 | 121.01032 | 82 ft | 2 kts | 136° |
| 2026-04-25 12:14 | 14.52005 | 121.01022 | 82 ft | 0 kts | 134° |
| 2026-04-25 12:14 | 14.52006 | 121.01021 | 82 ft | 0 kts | 134° |
| 2026-04-25 12:16 | 14.52006 | 121.01022 | 82 ft | 0 kts | 134° |
| 2026-04-25 12:17 | 14.51990 | 121.01038 | 82 ft | 5 kts | 134° |
| 2026-04-25 12:17 | 14.51953 | 121.01065 | 82 ft | 6 kts | 164° |
| 2026-04-25 12:17 | 14.51911 | 121.01054 | 82 ft | 5 kts | 208° |
| 2026-04-25 12:17 | 14.51871 | 121.01058 | 82 ft | 6 kts | 148° |
| 2026-04-25 12:18 | 14.51841 | 121.01086 | 82 ft | 7 kts | 135° |
| 2026-04-25 12:18 | 14.51800 | 121.01128 | 82 ft | 8 kts | 135° |
| 2026-04-25 12:18 | 14.51754 | 121.01176 | 82 ft | 9 kts | 134° |
| 2026-04-25 12:18 | 14.51695 | 121.01238 | 82 ft | 14 kts | 135° |
| 2026-04-25 12:19 | 14.51555 | 121.01382 | 82 ft | 17 kts | 135° |
| 2026-04-25 12:19 | 14.51444 | 121.01498 | 82 ft | 16 kts | 136° |
| 2026-04-25 12:19 | 14.51361 | 121.01582 | 82 ft | 16 kts | 134° |
| 2026-04-25 12:20 | 14.51279 | 121.01668 | 82 ft | 16 kts | 135° |
| 2026-04-25 12:20 | 14.51198 | 121.01752 | 82 ft | 16 kts | 135° |
| 2026-04-25 12:20 | 14.51116 | 121.01836 | 82 ft | 16 kts | 135° |
| 2026-04-25 12:20 | 14.51039 | 121.01910 | 82 ft | 12 kts | 156° |
| 2026-04-25 12:21 | 14.50974 | 121.01864 | 82 ft | 13 kts | 240° |
| 2026-04-25 12:21 | 14.50926 | 121.01778 | 82 ft | 14 kts | 239° |
| 2026-04-25 12:21 | 14.50874 | 121.01688 | 82 ft | 15 kts | 239° |
| 2026-04-25 12:21 | 14.50819 | 121.01592 | 82 ft | 15 kts | 240° |
| 2026-04-25 12:22 | 14.50765 | 121.01492 | 82 ft | 16 kts | 241° |
| 2026-04-25 12:22 | 14.50708 | 121.01389 | 82 ft | 16 kts | 240° |
| 2026-04-25 12:22 | 14.50650 | 121.01285 | 82 ft | 16 kts | 240° |
| 2026-04-25 12:22 | 14.50591 | 121.01178 | 82 ft | 17 kts | 240° |
| 2026-04-25 12:23 | 14.50531 | 121.01070 | 82 ft | 17 kts | 240° |
| 2026-04-25 12:23 | 14.50470 | 121.00960 | 82 ft | 17 kts | 240° |
| 2026-04-25 12:23 | 14.50408 | 121.00848 | 82 ft | 18 kts | 240° |
| 2026-04-25 12:23 | 14.50346 | 121.00736 | 82 ft | 18 kts | 239° |
| 2026-04-25 12:24 | 14.50282 | 121.00622 | 82 ft | 18 kts | 240° |
| 2026-04-25 12:24 | 14.50219 | 121.00507 | 82 ft | 18 kts | 240° |
| 2026-04-25 12:24 | 14.50154 | 121.00391 | 82 ft | 18 kts | 240° |
| 2026-04-25 12:24 | 14.50090 | 121.00275 | 82 ft | 18 kts | 240° |
| 2026-04-25 12:25 | 14.50025 | 121.00160 | 82 ft | 18 kts | 240° |
| 2026-04-25 12:25 | 14.49960 | 121.00041 | 82 ft | 18 kts | 240° |
| 2026-04-25 12:25 | 14.49924 | 120.99981 | 82 ft | 6 kts | 226° |
| 2026-04-25 12:25 | 14.49878 | 120.99968 | 82 ft | 7 kts | 165° |
| 2026-04-25 12:26 | 14.49828 | 120.99993 | 82 ft | 8 kts | 149° |
| 2026-04-25 12:26 | 14.49798 | 121.00028 | 82 ft | 6 kts | 90° |
| 2026-04-25 12:26 | 14.49814 | 121.00066 | 82 ft | 0 kts | 62° |
| 2026-04-25 12:27 | 14.49892 | 121.00209 | 82 ft | 59 kts | 61° |
| 2026-04-25 12:27 | 14.50214 | 121.00790 | 82 ft | 124 kts | 60° |
| 2026-04-25 12:28 | 14.50715 | 121.01696 | 293 ft | 154 kts | 62° |
| 2026-04-25 12:28 | 14.51239 | 121.02625 | 910 ft | 150 kts | 61° |
| 2026-04-25 12:28 | 14.51768 | 121.03537 | 1495 ft | 151 kts | 60° |
| 2026-04-25 12:28 | 14.52303 | 121.04478 | 2032 ft | 157 kts | 60° |
| 2026-04-25 12:29 | 14.52882 | 121.05510 | 2445 ft | 175 kts | 60° |
| 2026-04-25 12:29 | 14.53518 | 121.06651 | 2882 ft | 192 kts | 60° |
| 2026-04-25 12:29 | 14.54201 | 121.07890 | 3339 ft | 209 kts | 60° |
| 2026-04-25 12:29 | 14.54955 | 121.09277 | 3717 ft | 234 kts | 60° |
| 2026-04-25 12:30 | 14.55782 | 121.10807 | 4249 ft | 253 kts | 60° |
| 2026-04-25 12:30 | 14.56656 | 121.12424 | 4885 ft | 267 kts | 60° |
| 2026-04-25 12:30 | 14.57568 | 121.14108 | 5741 ft | 272 kts | 60° |
| 2026-04-25 12:30 | 14.58493 | 121.15804 | 6676 ft | 274 kts | 60° |
| 2026-04-25 12:31 | 14.59324 | 121.17590 | 7524 ft | 279 kts | 75° |
| 2026-04-25 12:31 | 14.59407 | 121.19552 | 8385 ft | 283 kts | 101° |
| 2026-04-25 12:31 | 14.58609 | 121.21402 | 9229 ft | 288 kts | 127° |
| 2026-04-25 12:31 | 14.57113 | 121.22791 | 10038 ft | 293 kts | 143° |
| 2026-04-25 12:32 | 14.55390 | 121.23970 | 10610 ft | 305 kts | 147° |
| 2026-04-25 12:32 | 14.53572 | 121.25152 | 10900 ft | 312 kts | 147° |
| 2026-04-25 12:32 | 14.51699 | 121.26363 | 10982 ft | 327 kts | 147° |
| 2026-04-25 12:32 | 14.49668 | 121.27679 | 10997 ft | 350 kts | 147° |
| 2026-04-25 12:33 | 14.47556 | 121.28991 | 10997 ft | 356 kts | 153° |
| 2026-04-25 12:33 | 14.45188 | 121.29792 | 11214 ft | 368 kts | 174° |
| 2026-04-25 12:33 | 14.42629 | 121.29563 | 12018 ft | 367 kts | 195° |
| 2026-04-25 12:33 | 14.40208 | 121.28855 | 12884 ft | 364 kts | 197° |
| 2026-04-25 12:34 | 14.37767 | 121.28136 | 13587 ft | 366 kts | 197° |
| 2026-04-25 12:34 | 14.35307 | 121.27419 | 14220 ft | 370 kts | 197° |
| 2026-04-25 12:34 | 14.32808 | 121.26695 | 14831 ft | 374 kts | 197° |
| 2026-04-25 12:34 | 14.31951 | 121.26448 | 15037 ft | 376 kts | 197° |
| 2026-04-25 12:35 | 14.27714 | 121.25229 | 15998 ft | 381 kts | 197° |
| 2026-04-25 12:35 | 14.25149 | 121.24492 | 16567 ft | 385 kts | 196° |
| 2026-04-25 12:35 | 14.22560 | 121.23749 | 17123 ft | 388 kts | 196° |
| 2026-04-25 12:35 | 14.19945 | 121.23002 | 17668 ft | 390 kts | 197° |
| 2026-04-25 12:36 | 14.17289 | 121.22243 | 18218 ft | 393 kts | 196° |
| 2026-04-25 12:36 | 14.14664 | 121.21493 | 18748 ft | 395 kts | 196° |
| 2026-04-25 12:36 | 14.11993 | 121.20729 | 19273 ft | 398 kts | 197° |
| 2026-04-25 12:36 | 14.09303 | 121.19961 | 19791 ft | 400 kts | 197° |
| 2026-04-25 12:37 | 14.06621 | 121.19196 | 20303 ft | 402 kts | 197° |
| 2026-04-25 12:37 | 14.03902 | 121.18420 | 20863 ft | 403 kts | 197° |
| 2026-04-25 12:37 | 14.01208 | 121.17651 | 21429 ft | 404 kts | 197° |
| 2026-04-25 12:37 | 13.98452 | 121.16864 | 21949 ft | 406 kts | 197° |
| 2026-04-25 12:38 | 13.95719 | 121.16085 | 22437 ft | 409 kts | 197° |
| 2026-04-25 12:38 | 13.92966 | 121.15299 | 22910 ft | 411 kts | 197° |
| 2026-04-25 12:38 | 13.90209 | 121.14513 | 23372 ft | 414 kts | 197° |
| 2026-04-25 12:38 | 13.87420 | 121.13720 | 23836 ft | 417 kts | 197° |
| 2026-04-25 12:39 | 13.84600 | 121.12920 | 24302 ft | 419 kts | 197° |
| 2026-04-25 12:39 | 13.81758 | 121.12114 | 24755 ft | 422 kts | 197° |
| 2026-04-25 12:39 | 13.78923 | 121.11308 | 25192 ft | 424 kts | 197° |
| 2026-04-25 12:39 | 13.76040 | 121.10487 | 25619 ft | 427 kts | 197° |
| 2026-04-25 12:40 | 13.73130 | 121.09658 | 26038 ft | 429 kts | 197° |
| 2026-04-25 12:40 | 13.70251 | 121.08838 | 26440 ft | 432 kts | 197° |
| 2026-04-25 12:40 | 13.67356 | 121.08013 | 26811 ft | 435 kts | 197° |
| 2026-04-25 12:40 | 13.64401 | 121.07172 | 26948 ft | 436 kts | 197° |
| 2026-04-25 12:41 | 13.61490 | 121.06345 | 26948 ft | 435 kts | 197° |
| 2026-04-25 12:41 | 13.58568 | 121.05513 | 26950 ft | 435 kts | 197° |
| 2026-04-25 12:41 | 13.55641 | 121.04680 | 26952 ft | 435 kts | 197° |
| 2026-04-25 12:41 | 13.52629 | 121.04113 | 26939 ft | 438 kts | 184° |
| 2026-04-25 12:42 | 13.49608 | 121.04427 | 26949 ft | 443 kts | 168° |
| 2026-04-25 12:42 | 13.48604 | 121.04736 | 26952 ft | 445 kts | 162° |
| 2026-04-25 12:42 | 13.44119 | 121.07410 | 26978 ft | 451 kts | 147° |
| 2026-04-25 12:42 | 13.41541 | 121.09268 | 26987 ft | 451 kts | 147° |
| 2026-04-25 12:43 | 13.38953 | 121.11128 | 26999 ft | 451 kts | 147° |
| 2026-04-25 12:43 | 13.36384 | 121.12952 | 27006 ft | 451 kts | 147° |
| 2026-04-25 12:43 | 13.31182 | 121.16602 | 27014 ft | 450 kts | 147° |
| 2026-04-25 12:44 | 13.28618 | 121.18397 | 26879 ft | 450 kts | 147° |
| 2026-04-25 12:44 | 13.26010 | 121.20224 | 26632 ft | 447 kts | 147° |
| 2026-04-25 12:44 | 13.20900 | 121.23806 | 26074 ft | 443 kts | 147° |
| 2026-04-25 12:45 | 13.18372 | 121.25577 | 25722 ft | 441 kts | 147° |
| 2026-04-25 12:45 | 13.15819 | 121.27367 | 25284 ft | 438 kts | 147° |
| 2026-04-25 12:45 | 13.10833 | 121.30860 | 24338 ft | 430 kts | 147° |
| 2026-04-25 12:46 | 13.08365 | 121.32589 | 23838 ft | 425 kts | 147° |
| 2026-04-25 12:46 | 13.05971 | 121.34267 | 23364 ft | 415 kts | 147° |
| 2026-04-25 12:46 | 13.03621 | 121.35912 | 22900 ft | 407 kts | 147° |
| 2026-04-25 12:46 | 13.01298 | 121.37537 | 22428 ft | 400 kts | 147° |
| 2026-04-25 12:47 | 12.98995 | 121.39148 | 21966 ft | 395 kts | 147° |
| 2026-04-25 12:47 | 12.96757 | 121.40713 | 21511 ft | 390 kts | 146° |
| 2026-04-25 12:47 | 12.94503 | 121.42289 | 21047 ft | 388 kts | 146° |
| 2026-04-25 12:47 | 12.92293 | 121.43834 | 20311 ft | 392 kts | 146° |
| 2026-04-25 12:48 | 12.89997 | 121.45436 | 19344 ft | 401 kts | 146° |
| 2026-04-25 12:48 | 12.87674 | 121.47052 | 18351 ft | 410 kts | 146° |
| 2026-04-25 12:48 | 12.85280 | 121.48713 | 17313 ft | 419 kts | 146° |
| 2026-04-25 12:48 | 12.82858 | 121.50397 | 16247 ft | 427 kts | 146° |
| 2026-04-25 12:49 | 12.80395 | 121.52116 | 15214 ft | 432 kts | 146° |
| 2026-04-25 12:49 | 12.77898 | 121.53859 | 14417 ft | 430 kts | 146° |
| 2026-04-25 12:49 | 12.75432 | 121.55580 | 13731 ft | 425 kts | 146° |
| 2026-04-25 12:49 | 12.73032 | 121.57256 | 13051 ft | 421 kts | 146° |
| 2026-04-25 12:50 | 12.70603 | 121.58951 | 12571 ft | 410 kts | 146° |
| 2026-04-25 12:50 | 12.68293 | 121.60563 | 12334 ft | 394 kts | 145° |
| 2026-04-25 12:50 | 12.66079 | 121.62109 | 12098 ft | 380 kts | 146° |
| 2026-04-25 12:50 | 12.63919 | 121.63616 | 11860 ft | 367 kts | 145° |
| 2026-04-25 12:51 | 12.61834 | 121.65070 | 11626 ft | 358 kts | 145° |
| 2026-04-25 12:51 | 12.59775 | 121.66515 | 11390 ft | 356 kts | 145° |
| 2026-04-25 12:51 | 12.57731 | 121.67953 | 11154 ft | 354 kts | 145° |
| 2026-04-25 12:51 | 12.55696 | 121.69380 | 10918 ft | 353 kts | 145° |
| 2026-04-25 12:52 | 12.53672 | 121.70797 | 10740 ft | 352 kts | 145° |
| 2026-04-25 12:52 | 12.51686 | 121.72183 | 10548 ft | 340 kts | 145° |
| 2026-04-25 12:52 | 12.49751 | 121.73533 | 10355 ft | 329 kts | 145° |
| 2026-04-25 12:52 | 12.47881 | 121.74836 | 10162 ft | 318 kts | 144° |
| 2026-04-25 12:53 | 12.46075 | 121.76095 | 9970 ft | 308 kts | 145° |
| 2026-04-25 12:53 | 12.44334 | 121.77307 | 9778 ft | 298 kts | 144° |
| 2026-04-25 12:53 | 12.42643 | 121.78484 | 9590 ft | 294 kts | 144° |
| 2026-04-25 12:53 | 12.40935 | 121.79673 | 9398 ft | 293 kts | 144° |
| 2026-04-25 12:54 | 12.39255 | 121.80842 | 9210 ft | 292 kts | 144° |
| 2026-04-25 12:54 | 12.37540 | 121.81966 | 9030 ft | 290 kts | 149° |
| 2026-04-25 12:54 | 12.35723 | 121.82873 | 8984 ft | 291 kts | 156° |
| 2026-04-25 12:54 | 12.33796 | 121.83562 | 8978 ft | 291 kts | 161° |
| 2026-04-25 12:55 | 12.31851 | 121.84148 | 8967 ft | 292 kts | 162° |
| 2026-04-25 12:55 | 12.30549 | 121.84531 | 8969 ft | 292 kts | 162° |
| 2026-04-25 12:55 | 12.27927 | 121.85303 | 8973 ft | 292 kts | 162° |
| 2026-04-25 12:55 | 12.25958 | 121.85883 | 8974 ft | 292 kts | 162° |
| 2026-04-25 12:56 | 12.24015 | 121.86459 | 8973 ft | 293 kts | 162° |
| 2026-04-25 12:56 | 12.22076 | 121.87035 | 8951 ft | 281 kts | 162° |
| 2026-04-25 12:56 | 12.20260 | 121.87573 | 8953 ft | 265 kts | 162° |
| 2026-04-25 12:56 | 12.18512 | 121.88090 | 8951 ft | 249 kts | 161° |
| 2026-04-25 12:57 | 12.16905 | 121.88567 | 8948 ft | 234 kts | 161° |
| 2026-04-25 12:57 | 12.15377 | 121.89021 | 8941 ft | 219 kts | 161° |
| 2026-04-25 12:57 | 12.13948 | 121.89446 | 8898 ft | 209 kts | 161° |
| 2026-04-25 12:57 | 12.12563 | 121.89860 | 8655 ft | 207 kts | 161° |
| 2026-04-25 12:58 | 12.11163 | 121.90277 | 8536 ft | 208 kts | 161° |
| 2026-04-25 12:58 | 12.09770 | 121.90691 | 8344 ft | 208 kts | 160° |
| 2026-04-25 12:58 | 12.08391 | 121.91101 | 8123 ft | 206 kts | 160° |
| 2026-04-25 12:58 | 12.07011 | 121.91508 | 7893 ft | 206 kts | 163° |
| 2026-04-25 12:59 | 12.05572 | 121.91618 | 7635 ft | 209 kts | 184° |
| 2026-04-25 12:59 | 12.04168 | 121.91182 | 7353 ft | 214 kts | 206° |
| 2026-04-25 12:59 | 12.02975 | 121.90231 | 7065 ft | 218 kts | 228° |
| 2026-04-25 12:59 | 12.02070 | 121.88989 | 6811 ft | 218 kts | 233° |
| 2026-04-25 13:00 | 12.01217 | 121.87686 | 6531 ft | 219 kts | 234° |
| 2026-04-25 13:00 | 12.00948 | 121.87271 | 6454 ft | 218 kts | 233° |
| 2026-04-25 13:00 | 11.99513 | 121.85105 | 6058 ft | 220 kts | 232° |
| 2026-04-25 13:00 | 11.98649 | 121.83831 | 5821 ft | 219 kts | 232° |
| 2026-04-25 13:01 | 11.97776 | 121.82557 | 5586 ft | 219 kts | 232° |
| 2026-04-25 13:01 | 11.96896 | 121.81277 | 5344 ft | 218 kts | 232° |
| 2026-04-25 13:01 | 11.96027 | 121.80014 | 5106 ft | 218 kts | 232° |
| 2026-04-25 13:01 | 11.95152 | 121.78742 | 4869 ft | 218 kts | 232° |
| 2026-04-25 13:02 | 11.94285 | 121.77484 | 4632 ft | 217 kts | 232° |
| 2026-04-25 13:02 | 11.93413 | 121.76216 | 4392 ft | 217 kts | 232° |
| 2026-04-25 13:02 | 11.92522 | 121.74959 | 4149 ft | 215 kts | 224° |
| 2026-04-25 13:02 | 11.91360 | 121.74068 | 3904 ft | 206 kts | 197° |
| 2026-04-25 13:03 | 11.90010 | 121.73779 | 3776 ft | 188 kts | 172° |
| 2026-04-25 13:03 | 11.88780 | 121.74008 | 3787 ft | 168 kts | 152° |
| 2026-04-25 13:03 | 11.87788 | 121.74486 | 3744 ft | 152 kts | 144° |
| 2026-04-25 13:03 | 11.86857 | 121.75000 | 3748 ft | 151 kts | 143° |
| 2026-04-25 13:04 | 11.85931 | 121.75511 | 3750 ft | 151 kts | 144° |
| 2026-04-25 13:04 | 11.84998 | 121.76022 | 3753 ft | 150 kts | 140° |
| 2026-04-25 13:04 | 11.84282 | 121.76743 | 3744 ft | 140 kts | 114° |
| 2026-04-25 13:04 | 11.83974 | 121.77655 | 3572 ft | 135 kts | 92° |
| 2026-04-25 13:05 | 11.84060 | 121.78606 | 3413 ft | 137 kts | 71° |
| 2026-04-25 13:05 | 11.84454 | 121.79495 | 3249 ft | 138 kts | 64° |
| 2026-04-25 13:05 | 11.84892 | 121.80370 | 3070 ft | 138 kts | 64° |
| 2026-04-25 13:05 | 11.85327 | 121.81235 | 2898 ft | 137 kts | 63° |
| 2026-04-25 13:06 | 11.85761 | 121.82098 | 2728 ft | 137 kts | 63° |
| 2026-04-25 13:06 | 11.86200 | 121.82970 | 2562 ft | 136 kts | 64° |
| 2026-04-25 13:06 | 11.86632 | 121.83827 | 2407 ft | 136 kts | 64° |
| 2026-04-25 13:06 | 11.87062 | 121.84683 | 2226 ft | 136 kts | 63° |
| 2026-04-25 13:07 | 11.87494 | 121.85545 | 2025 ft | 135 kts | 63° |
| 2026-04-25 13:07 | 11.87922 | 121.86397 | 1837 ft | 135 kts | 63° |
| 2026-04-25 13:07 | 11.88348 | 121.87247 | 1664 ft | 135 kts | 63° |
| 2026-04-25 13:07 | 11.88778 | 121.88103 | 1477 ft | 134 kts | 63° |
| 2026-04-25 13:08 | 11.89204 | 121.88950 | 1293 ft | 133 kts | 63° |
| 2026-04-25 13:08 | 11.89623 | 121.89785 | 1126 ft | 133 kts | 63° |
| 2026-04-25 13:08 | 11.90042 | 121.90629 | 940 ft | 132 kts | 64° |
| 2026-04-25 13:08 | 11.90456 | 121.91470 | 750 ft | 132 kts | 64° |
| 2026-04-25 13:09 | 11.90888 | 121.92302 | 579 ft | 132 kts | 63° |
| 2026-04-25 13:09 | 11.91311 | 121.93133 | 426 ft | 131 kts | 64° |
| 2026-04-25 13:09 | 11.91735 | 121.93956 | 278 ft | 131 kts | 63° |
| 2026-04-25 13:09 | 11.92143 | 121.94769 | 96 ft | 128 kts | 64° |
| 2026-04-25 13:10 | 11.92536 | 121.95559 | 13 ft | 115 kts | 64° |
| 2026-04-25 13:10 | 11.92762 | 121.96014 | 13 ft | 28 kts | 63° |
| 2026-04-25 13:10 | 11.92846 | 121.96184 | 13 ft | 25 kts | 64° |
| 2026-04-25 13:10 | 11.92920 | 121.96330 | 12 ft | 22 kts | 64° |
| 2026-04-25 13:11 | 11.92939 | 121.96420 | 12 ft | 11 kts | 83° |
| 2026-04-25 13:11 | 11.92928 | 121.96472 | 12 ft | 6 kts | 131° |
| 2026-04-25 13:11 | 11.92883 | 121.96499 | 12 ft | 8 kts | 152° |
| 2026-04-25 13:11 | 11.92829 | 121.96526 | 12 ft | 9 kts | 156° |
| 2026-04-25 13:12 | 11.92777 | 121.96513 | 12 ft | 8 kts | 233° |
| 2026-04-25 13:12 | 11.92761 | 121.96484 | 12 ft | 0 kts | 242° |
| 2026-04-25 13:12 | 11.92761 | 121.96483 | 12 ft | 0 kts | 242° |
| 2026-04-25 13:12 | 11.92760 | 121.96483 | 12 ft | 0 kts | 242° |
| 2026-04-25 13:13 | 11.92757 | 121.96477 | 12 ft | 0 kts | 242° |
| 2026-04-25 13:14 | 11.92750 | 121.96456 | 12 ft | 8 kts | 254° |
| 2026-04-25 13:14 | 11.92722 | 121.96396 | 12 ft | 10 kts | 236° |
| 2026-04-25 13:15 | 11.92686 | 121.96330 | 12 ft | 11 kts | 243° |
| 2026-04-25 13:15 | 11.92648 | 121.96254 | 12 ft | 10 kts | 241° |
| 2026-04-25 13:15 | 11.92625 | 121.96226 | 12 ft | 4 kts | 212° |
| 2026-04-25 13:15 | 11.92592 | 121.96216 | 12 ft | 4 kts | 181° |
| 2026-04-25 13:16 | 11.92557 | 121.96224 | 13 ft | 6 kts | 158° |
| 2026-04-25 13:16 | 11.92511 | 121.96246 | 12 ft | 4 kts | 154° |
| 2026-04-25 13:16 | 11.92503 | 121.96268 | 13 ft | 3 kts | 68° |
| 2026-04-25 13:16 | 11.92513 | 121.96293 | 12 ft | 3 kts | 65° |
| 2026-04-25 13:17 | 11.92519 | 121.96306 | 12 ft | 0 kts | 64° |
| 2026-04-25 13:17 | 11.92519 | 121.96307 | 12 ft | 0 kts | 65° |